createdAt,value
2018-03-06T00:00:19.809Z,0
2018-03-06T00:01:21.415Z,0
2018-03-06T00:02:23.014Z,0
2018-03-06T00:03:25.290Z,0
2018-03-06T00:04:26.899Z,0
2018-03-06T00:05:28.504Z,0
2018-03-06T00:06:30.114Z,0
2018-03-06T00:07:31.856Z,0
2018-03-06T00:08:33.461Z,0
2018-03-06T00:09:35.082Z,0
2018-03-06T00:10:36.743Z,0
2018-03-06T00:11:38.298Z,0
2018-03-06T00:12:39.909Z,0
2018-03-06T00:13:41.518Z,0
2018-03-06T00:14:43.448Z,0
2018-03-06T00:15:45.069Z,0
2018-03-06T00:16:47.120Z,0
2018-03-06T00:17:49.138Z,0
2018-03-06T00:18:50.791Z,0
2018-03-06T00:19:52.761Z,0
2018-03-06T00:20:54.362Z,0
2018-03-06T00:21:55.965Z,0
2018-03-06T00:22:57.570Z,0
2018-03-06T00:23:59.427Z,0
2018-03-06T00:25:01.105Z,0
2018-03-06T00:26:03.014Z,0
2018-03-06T00:27:04.630Z,0
2018-03-06T00:28:06.233Z,0
2018-03-06T00:29:07.919Z,0
2018-03-06T00:30:10.028Z,0
2018-03-06T00:31:12.055Z,0
2018-03-06T00:32:13.692Z,0
2018-03-06T00:33:15.721Z,0
2018-03-06T00:34:17.405Z,0
2018-03-06T00:35:19.639Z,0
2018-03-06T00:36:21.259Z,0
2018-03-06T00:37:23.071Z,0
2018-03-06T00:38:25.087Z,0
2018-03-06T00:39:26.701Z,0
2018-03-06T00:40:28.313Z,0
2018-03-06T00:41:30.570Z,0
2018-03-06T00:42:32.179Z,0
2018-03-06T00:43:33.779Z,0
2018-03-06T00:44:35.388Z,0
2018-03-06T00:45:37.317Z,0
2018-03-06T00:46:38.926Z,0
2018-03-06T00:47:40.596Z,0
2018-03-06T00:48:42.253Z,0
2018-03-06T00:49:43.863Z,0
2018-03-06T00:50:45.468Z,0
2018-03-06T00:51:47.071Z,0
2018-03-06T00:52:48.678Z,0
2018-03-06T00:53:50.277Z,0
2018-03-06T00:54:51.886Z,0
2018-03-06T00:55:53.487Z,0
2018-03-06T00:56:55.099Z,0
2018-03-06T00:57:56.697Z,0
2018-03-06T00:58:58.306Z,0
2018-03-06T00:59:59.906Z,0
2018-03-06T01:01:01.507Z,0
2018-03-06T01:02:03.115Z,0
2018-03-06T01:03:04.724Z,0
2018-03-06T01:04:06.329Z,0
2018-03-06T01:05:07.928Z,0
2018-03-06T01:06:09.540Z,0
2018-03-06T01:07:11.140Z,0
2018-03-06T01:08:12.742Z,0
2018-03-06T01:09:14.346Z,0
2018-03-06T01:10:15.954Z,0
2018-03-06T01:11:17.565Z,0
2018-03-06T01:12:19.165Z,0
2018-03-06T01:13:20.771Z,0
2018-03-06T01:14:22.417Z,0
2018-03-06T01:15:23.981Z,0
2018-03-06T01:16:25.584Z,0
2018-03-06T01:17:27.187Z,0
2018-03-06T01:18:28.799Z,0
2018-03-06T01:19:30.403Z,0
2018-03-06T01:20:32.004Z,0
2018-03-06T01:21:33.607Z,0
2018-03-06T01:22:35.219Z,0
2018-03-06T01:23:36.822Z,0
2018-03-06T01:24:38.423Z,0
2018-03-06T01:25:40.027Z,0
2018-03-06T01:26:41.635Z,0
2018-03-06T01:27:43.240Z,0
2018-03-06T01:28:44.842Z,0
2018-03-06T01:29:46.444Z,0
2018-03-06T01:30:48.054Z,0
2018-03-06T01:31:49.660Z,0
2018-03-06T01:32:51.269Z,0
2018-03-06T01:33:52.871Z,0
2018-03-06T01:34:54.479Z,0
2018-03-06T01:35:56.079Z,0
2018-03-06T01:36:57.687Z,0
2018-03-06T01:37:59.293Z,0
2018-03-06T01:39:00.898Z,0
2018-03-06T01:40:02.501Z,0
2018-03-06T01:41:04.105Z,0
2018-03-06T01:42:05.709Z,0
2018-03-06T01:43:07.314Z,0
2018-03-06T01:44:08.914Z,0
2018-03-06T01:45:10.522Z,0
2018-03-06T01:46:12.123Z,0
2018-03-06T01:47:13.736Z,0
2018-03-06T01:48:15.337Z,0
2018-03-06T01:49:16.944Z,0
2018-03-06T01:50:18.549Z,0
2018-03-06T01:51:20.149Z,0
2018-03-06T01:52:21.758Z,0
2018-03-06T01:53:23.360Z,0
2018-03-06T01:54:24.970Z,0
2018-03-06T01:55:26.568Z,0
2018-03-06T01:56:28.180Z,0
2018-03-06T01:57:29.782Z,0
2018-03-06T01:58:31.384Z,0
2018-03-06T01:59:32.994Z,0
2018-03-06T02:00:34.595Z,0
2018-03-06T02:01:36.199Z,0
2018-03-06T02:02:37.804Z,0
2018-03-06T02:03:39.412Z,0
2018-03-06T02:04:41.013Z,0
2018-03-06T02:05:42.613Z,0
2018-03-06T02:06:44.219Z,0
2018-03-06T02:07:45.824Z,0
2018-03-06T02:08:47.429Z,0
2018-03-06T02:09:49.032Z,0
2018-03-06T02:10:50.645Z,0
2018-03-06T02:11:52.237Z,0
2018-03-06T02:12:53.840Z,0
2018-03-06T02:13:55.449Z,0
2018-03-06T02:14:57.054Z,0
2018-03-06T02:15:58.661Z,0
2018-03-06T02:17:00.264Z,0
2018-03-06T02:18:01.872Z,0
2018-03-06T02:19:03.469Z,0
2018-03-06T02:20:05.074Z,0
2018-03-06T02:21:06.676Z,0
2018-03-06T02:22:08.287Z,0
2018-03-06T02:23:09.894Z,0
2018-03-06T02:24:11.495Z,0
2018-03-06T02:25:13.100Z,0
2018-03-06T02:26:14.706Z,0
2018-03-06T02:27:16.313Z,0
2018-03-06T02:28:17.912Z,0
2018-03-06T02:29:19.517Z,0
2018-03-06T02:30:21.129Z,0
2018-03-06T02:31:22.729Z,0
2018-03-06T02:32:24.335Z,0
2018-03-06T02:33:25.931Z,0
2018-03-06T02:34:27.538Z,0
2018-03-06T02:35:29.141Z,0
2018-03-06T02:36:30.747Z,0
2018-03-06T02:37:32.357Z,0
2018-03-06T02:38:33.959Z,0
2018-03-06T02:39:35.563Z,0
2018-03-06T02:40:37.168Z,0
2018-03-06T02:41:38.769Z,0
2018-03-06T02:42:40.379Z,0
2018-03-06T02:43:41.982Z,0
2018-03-06T02:44:43.594Z,0
2018-03-06T02:45:45.195Z,0
2018-03-06T02:46:46.801Z,0
2018-03-06T02:47:48.407Z,0
2018-03-06T02:48:50.008Z,0
2018-03-06T02:49:51.618Z,0
2018-03-06T02:50:53.222Z,0
2018-03-06T02:51:54.828Z,0
2018-03-06T02:52:56.430Z,0
2018-03-06T02:53:58.036Z,0
2018-03-06T02:54:59.632Z,0
2018-03-06T02:56:01.236Z,0
2018-03-06T02:57:02.843Z,0
2018-03-06T02:58:04.452Z,0
2018-03-06T02:59:06.059Z,0
2018-03-06T03:00:07.658Z,0
2018-03-06T03:01:09.266Z,0
2018-03-06T03:02:10.870Z,0
2018-03-06T03:03:12.471Z,0
2018-03-06T03:04:14.077Z,0
2018-03-06T03:05:15.684Z,0
2018-03-06T03:06:17.293Z,0
2018-03-06T03:07:18.896Z,0
2018-03-06T03:08:20.498Z,0
2018-03-06T03:09:22.101Z,0
2018-03-06T03:10:23.702Z,0
2018-03-06T03:11:25.313Z,0
2018-03-06T03:12:26.916Z,0
2018-03-06T03:13:28.526Z,0
2018-03-06T03:14:30.129Z,0
2018-03-06T03:15:31.732Z,0
2018-03-06T03:16:33.331Z,0
2018-03-06T03:17:34.939Z,0
2018-03-06T03:18:36.542Z,0
2018-03-06T03:19:38.151Z,0
2018-03-06T03:20:39.761Z,0
2018-03-06T03:21:41.357Z,0
2018-03-06T03:22:42.960Z,0
2018-03-06T03:23:44.562Z,0
2018-03-06T03:24:46.169Z,0
2018-03-06T03:25:47.777Z,0
2018-03-06T03:26:49.381Z,0
2018-03-06T03:27:50.987Z,0
2018-03-06T03:28:52.593Z,0
2018-03-06T03:29:54.195Z,0
2018-03-06T03:30:55.803Z,0
2018-03-06T03:31:57.403Z,0
2018-03-06T03:32:59.010Z,0
2018-03-06T03:34:00.612Z,0
2018-03-06T03:35:02.226Z,0
2018-03-06T03:36:03.823Z,0
2018-03-06T03:37:05.432Z,0
2018-03-06T03:38:07.036Z,0
2018-03-06T03:39:08.641Z,0
2018-03-06T03:40:10.246Z,0
2018-03-06T03:41:11.851Z,0
2018-03-06T03:42:13.506Z,0
2018-03-06T03:43:15.057Z,0
2018-03-06T03:44:16.667Z,0
2018-03-06T03:45:18.268Z,0
2018-03-06T03:46:19.875Z,0
2018-03-06T03:47:21.483Z,0
2018-03-06T03:48:23.085Z,0
2018-03-06T03:49:24.690Z,0
2018-03-06T03:50:26.294Z,0
2018-03-06T03:51:27.901Z,0
2018-03-06T03:52:29.500Z,0
2018-03-06T03:53:31.104Z,0
2018-03-06T03:54:32.712Z,0
2018-03-06T03:55:34.315Z,0
2018-03-06T03:56:35.919Z,0
2018-03-06T03:57:37.519Z,0
2018-03-06T03:58:39.124Z,0
2018-03-06T03:59:40.730Z,0
2018-03-06T04:00:42.330Z,0
2018-03-06T04:01:43.943Z,0
2018-03-06T04:02:45.538Z,0
2018-03-06T04:03:47.168Z,0
2018-03-06T04:04:48.763Z,0
2018-03-06T04:05:50.372Z,0
2018-03-06T04:06:51.972Z,0
2018-03-06T04:07:53.579Z,0
2018-03-06T04:08:55.180Z,0
2018-03-06T04:09:56.788Z,0
2018-03-06T04:10:58.400Z,0
2018-03-06T04:11:59.999Z,0
2018-03-06T04:13:01.602Z,0
2018-03-06T04:14:03.200Z,0
2018-03-06T04:15:04.810Z,0
2018-03-06T04:16:07.117Z,0
2018-03-06T04:17:08.726Z,0
2018-03-06T04:18:10.334Z,0
2018-03-06T04:19:11.932Z,0
2018-03-06T04:20:13.535Z,0
2018-03-06T04:21:15.145Z,0
2018-03-06T04:22:16.747Z,0
2018-03-06T04:23:18.347Z,0
2018-03-06T04:24:19.986Z,0
2018-03-06T04:25:21.562Z,0
2018-03-06T04:26:23.163Z,0
2018-03-06T04:27:24.765Z,0
2018-03-06T04:28:26.372Z,0
2018-03-06T04:29:27.970Z,0
2018-03-06T04:30:29.579Z,0
2018-03-06T04:31:31.181Z,0
2018-03-06T04:32:32.787Z,0
2018-03-06T04:33:34.388Z,0
2018-03-06T04:34:35.994Z,0
2018-03-06T04:35:37.595Z,0
2018-03-06T04:36:39.197Z,0
2018-03-06T04:37:40.807Z,0
2018-03-06T04:38:42.413Z,0
2018-03-06T04:39:44.016Z,0
2018-03-06T04:40:45.617Z,0
2018-03-06T04:41:47.225Z,0
2018-03-06T04:42:48.826Z,0
2018-03-06T04:43:50.435Z,0
2018-03-06T04:44:52.040Z,0
2018-03-06T04:45:53.644Z,0
2018-03-06T04:46:55.250Z,0
2018-03-06T04:47:56.855Z,0
2018-03-06T04:48:58.459Z,0
2018-03-06T04:50:00.058Z,0
2018-03-06T04:51:01.666Z,0
2018-03-06T04:52:03.271Z,0
2018-03-06T04:53:04.871Z,0
2018-03-06T04:54:06.482Z,0
2018-03-06T04:55:08.084Z,0
2018-03-06T04:56:09.690Z,0
2018-03-06T04:57:11.291Z,0
2018-03-06T04:58:12.897Z,0
2018-03-06T04:59:14.505Z,0
2018-03-06T05:00:16.105Z,0
2018-03-06T05:01:17.710Z,0
2018-03-06T05:02:19.326Z,0
2018-03-06T05:03:20.934Z,0
2018-03-06T05:04:22.534Z,0
2018-03-06T05:05:24.137Z,0
2018-03-06T05:06:25.745Z,0
2018-03-06T05:07:27.351Z,0
2018-03-06T05:08:28.959Z,0
2018-03-06T05:09:30.558Z,0
2018-03-06T05:10:32.166Z,0
2018-03-06T05:11:33.763Z,0
2018-03-06T05:12:36.161Z,0
2018-03-06T05:13:37.764Z,0
2018-03-06T05:14:39.373Z,0
2018-03-06T05:15:40.980Z,0
2018-03-06T05:16:42.585Z,0
2018-03-06T05:17:44.185Z,0
2018-03-06T05:18:45.790Z,0
2018-03-06T05:19:47.394Z,0
2018-03-06T05:20:49.004Z,0
2018-03-06T05:21:50.604Z,0
2018-03-06T05:22:52.216Z,0
2018-03-06T05:23:53.818Z,0
2018-03-06T05:24:55.418Z,0
2018-03-06T05:25:57.025Z,0
2018-03-06T05:26:58.629Z,0
2018-03-06T05:28:00.237Z,0
2018-03-06T05:29:01.840Z,0
2018-03-06T05:30:03.446Z,0
2018-03-06T05:31:05.044Z,0
2018-03-06T05:32:06.652Z,0
2018-03-06T05:33:08.821Z,0
2018-03-06T05:34:10.430Z,0
2018-03-06T05:35:12.029Z,0
2018-03-06T05:36:13.638Z,0
2018-03-06T05:37:15.240Z,0
2018-03-06T05:38:16.847Z,4
2018-03-06T05:39:18.449Z,4
2018-03-06T05:40:20.052Z,4
2018-03-06T05:41:21.660Z,0
2018-03-06T05:42:23.265Z,0
2018-03-06T05:43:25.741Z,4
2018-03-06T05:44:27.344Z,4
2018-03-06T05:45:28.951Z,4
2018-03-06T05:46:30.558Z,8
2018-03-06T05:47:32.160Z,8
2018-03-06T05:48:33.763Z,8
2018-03-06T05:49:35.371Z,12
2018-03-06T05:50:36.982Z,16
2018-03-06T05:51:38.584Z,16
2018-03-06T05:52:40.188Z,16
2018-03-06T05:53:41.796Z,20
2018-03-06T05:54:43.402Z,28
2018-03-06T05:55:45.008Z,28
2018-03-06T05:56:46.618Z,28
2018-03-06T05:57:48.222Z,28
2018-03-06T05:58:49.831Z,32
2018-03-06T05:59:51.440Z,36
2018-03-06T06:00:53.069Z,40
2018-03-06T06:01:54.647Z,44
2018-03-06T06:02:56.251Z,48
2018-03-06T06:03:57.863Z,60
2018-03-06T06:04:59.470Z,68
2018-03-06T06:06:01.072Z,76
2018-03-06T06:07:03.560Z,80
2018-03-06T06:08:05.165Z,84
2018-03-06T06:09:06.772Z,92
2018-03-06T06:10:08.380Z,104
2018-03-06T06:11:09.988Z,104
2018-03-06T06:12:11.600Z,112
2018-03-06T06:13:13.210Z,124
2018-03-06T06:14:14.812Z,136
2018-03-06T06:15:16.425Z,152
2018-03-06T06:16:18.028Z,168
2018-03-06T06:17:19.643Z,184
2018-03-06T06:18:21.251Z,200
2018-03-06T06:19:22.860Z,216
2018-03-06T06:20:24.466Z,236
2018-03-06T06:21:26.076Z,220
2018-03-06T06:22:27.684Z,248
2018-03-06T06:23:29.296Z,284
2018-03-06T06:24:30.933Z,308
2018-03-06T06:25:32.515Z,340
2018-03-06T06:26:34.125Z,368
2018-03-06T06:27:35.730Z,404
2018-03-06T06:28:37.340Z,440
2018-03-06T06:29:38.944Z,488
2018-03-06T06:30:40.555Z,540
2018-03-06T06:31:42.164Z,580
2018-03-06T06:32:43.770Z,604
2018-03-06T06:33:45.377Z,644
2018-03-06T06:34:47.452Z,692
2018-03-06T06:35:49.058Z,740
2018-03-06T06:36:50.661Z,776
2018-03-06T06:37:52.270Z,700
2018-03-06T06:38:53.891Z,808
2018-03-06T06:39:55.500Z,980
2018-03-06T06:40:57.109Z,1060
2018-03-06T06:41:58.721Z,1120
2018-03-06T06:43:00.327Z,1192
2018-03-06T06:44:01.942Z,1256
2018-03-06T06:45:03.547Z,1348
2018-03-06T06:46:05.152Z,1440
2018-03-06T06:47:06.765Z,1504
2018-03-06T06:48:08.391Z,1544
2018-03-06T06:49:09.991Z,1580
2018-03-06T06:50:11.596Z,1632
2018-03-06T06:51:13.211Z,1700
2018-03-06T06:52:14.822Z,1832
2018-03-06T06:53:16.428Z,2012
2018-03-06T06:54:18.038Z,2148
2018-03-06T06:55:19.650Z,2232
2018-03-06T06:56:21.265Z,2320
2018-03-06T06:57:22.875Z,2372
2018-03-06T06:58:24.483Z,2352
2018-03-06T06:59:26.091Z,2016
2018-03-06T07:00:27.703Z,2356
2018-03-06T07:01:29.319Z,2396
2018-03-06T07:02:30.928Z,2476
2018-03-06T07:03:32.542Z,2588
2018-03-06T07:04:34.150Z,2756
2018-03-06T07:05:35.767Z,2984
2018-03-06T07:06:37.371Z,3140
2018-03-06T07:07:38.988Z,3312
2018-03-06T07:08:40.596Z,3448
2018-03-06T07:09:42.214Z,3540
2018-03-06T07:10:43.827Z,3784
2018-03-06T07:11:45.431Z,3988
2018-03-06T07:12:47.042Z,4176
2018-03-06T07:13:48.652Z,4348
2018-03-06T07:14:50.266Z,4476
2018-03-06T07:15:51.883Z,4816
2018-03-06T07:16:53.496Z,5476
2018-03-06T07:17:55.105Z,6024
2018-03-06T07:18:56.712Z,5984
2018-03-06T07:19:58.325Z,5768
2018-03-06T07:20:59.934Z,5944
2018-03-06T07:22:01.549Z,6164
2018-03-06T07:23:03.161Z,6420
2018-03-06T07:24:04.770Z,6540
2018-03-06T07:25:06.383Z,7600
2018-03-06T07:26:08.825Z,7468
2018-03-06T07:27:10.437Z,7680
2018-03-06T07:28:12.047Z,7568
2018-03-06T07:29:13.661Z,7556
2018-03-06T07:30:15.275Z,7200
2018-03-06T07:31:16.889Z,8184
2018-03-06T07:32:18.507Z,7728
2018-03-06T07:33:20.109Z,8016
2018-03-06T07:34:21.725Z,9556
2018-03-06T07:35:23.379Z,9816
2018-03-06T07:36:24.950Z,10204
2018-03-06T07:37:26.565Z,10512
2018-03-06T07:38:28.177Z,10984
2018-03-06T07:39:29.797Z,11172
2018-03-06T07:40:31.404Z,10852
2018-03-06T07:41:33.022Z,9640
2018-03-06T07:42:34.630Z,8508
2018-03-06T07:43:36.240Z,7996
2018-03-06T07:44:37.855Z,8384
2018-03-06T07:45:39.469Z,8760
2018-03-06T07:46:41.138Z,8452
2018-03-06T07:47:42.747Z,8596
2018-03-06T07:48:44.364Z,8408
2018-03-06T07:49:45.972Z,7964
2018-03-06T07:50:47.588Z,8568
2018-03-06T07:51:49.209Z,8352
2018-03-06T07:52:50.943Z,7872
2018-03-06T07:53:52.493Z,8276
2018-03-06T07:54:54.109Z,8408
2018-03-06T07:55:57.871Z,7296
2018-03-06T07:56:59.480Z,7312
2018-03-06T07:58:01.095Z,7376
2018-03-06T07:59:02.713Z,7392
2018-03-06T08:00:05.306Z,7436
2018-03-06T08:01:06.918Z,7476
2018-03-06T08:02:08.534Z,7524
2018-03-06T08:03:10.150Z,7588
2018-03-06T08:04:11.761Z,7624
2018-03-06T08:05:13.376Z,7612
2018-03-06T08:06:14.988Z,7568
2018-03-06T08:07:16.606Z,7476
2018-03-06T08:08:18.221Z,7356
2018-03-06T08:09:20.131Z,7212
2018-03-06T08:10:21.805Z,7028
2018-03-06T08:11:23.421Z,6812
2018-03-06T08:12:25.033Z,6688
2018-03-06T08:13:26.651Z,6592
2018-03-06T08:14:28.267Z,6548
2018-03-06T08:15:29.910Z,6416
2018-03-06T08:16:31.531Z,6348
2018-03-06T08:17:33.148Z,6400
2018-03-06T08:18:34.763Z,6420
2018-03-06T08:19:36.374Z,6448
2018-03-06T08:20:37.995Z,6404
2018-03-06T08:21:39.700Z,6540
2018-03-06T08:22:41.287Z,6488
2018-03-06T08:23:42.895Z,6472
2018-03-06T08:24:44.507Z,6468
2018-03-06T08:25:46.126Z,6628
2018-03-06T08:26:47.742Z,6756
2018-03-06T08:27:49.357Z,6912
2018-03-06T08:28:50.969Z,7080
2018-03-06T08:29:52.592Z,7380
2018-03-06T08:30:54.204Z,7932
2018-03-06T08:31:55.815Z,7988
2018-03-06T08:32:57.430Z,8020
2018-03-06T08:33:59.052Z,8604
2018-03-06T08:35:00.664Z,8316
2018-03-06T08:36:02.279Z,8244
2018-03-06T08:37:03.897Z,8540
2018-03-06T08:38:05.511Z,9164
2018-03-06T08:39:07.131Z,10696
2018-03-06T08:40:08.743Z,10312
2018-03-06T08:41:10.363Z,11708
2018-03-06T08:42:11.976Z,11532
2018-03-06T08:43:13.594Z,10848
2018-03-06T08:44:15.216Z,10420
2018-03-06T08:45:16.835Z,10412
2018-03-06T08:46:18.444Z,10872
2018-03-06T08:47:20.059Z,10692
2018-03-06T08:48:21.781Z,10892
2018-03-06T08:49:23.395Z,11120
2018-03-06T08:50:25.010Z,10240
2018-03-06T08:51:26.627Z,10092
2018-03-06T08:52:28.248Z,11724
2018-03-06T08:53:29.867Z,13524
2018-03-06T08:54:31.482Z,16960
2018-03-06T08:55:33.098Z,13352
2018-03-06T08:56:34.721Z,10100
2018-03-06T08:57:36.337Z,12552
2018-03-06T08:58:38.094Z,16832
2018-03-06T08:59:39.743Z,14424
2018-03-06T09:00:41.367Z,12528
2018-03-06T09:01:42.980Z,12320
2018-03-06T09:02:44.600Z,13520
2018-03-06T09:03:46.218Z,15264
2018-03-06T09:04:47.844Z,13112
2018-03-06T09:05:49.462Z,11840
2018-03-06T09:06:51.080Z,12112
2018-03-06T09:07:52.702Z,16896
2018-03-06T09:08:54.319Z,15744
2018-03-06T09:09:55.937Z,15264
2018-03-06T09:10:57.561Z,14852
2018-03-06T09:11:59.178Z,18144
2018-03-06T09:13:00.802Z,12624
2018-03-06T09:14:02.423Z,14528
2018-03-06T09:15:04.037Z,16096
2018-03-06T09:16:05.660Z,17120
2018-03-06T09:17:07.279Z,17216
2018-03-06T09:18:08.901Z,21024
2018-03-06T09:19:10.532Z,22976
2018-03-06T09:20:12.156Z,23808
2018-03-06T09:21:13.772Z,20544
2018-03-06T09:22:15.396Z,28064
2018-03-06T09:23:17.013Z,29536
2018-03-06T09:24:18.639Z,24800
2018-03-06T09:25:20.256Z,24864
2018-03-06T09:26:21.882Z,25632
2018-03-06T09:27:23.503Z,20768
2018-03-06T09:28:25.123Z,24800
2018-03-06T09:29:26.740Z,25920
2018-03-06T09:30:28.362Z,28096
2018-03-06T09:31:29.988Z,28992
2018-03-06T09:32:31.615Z,31264
2018-03-06T09:33:33.233Z,32768
2018-03-06T09:34:35.497Z,29600
2018-03-06T09:35:37.120Z,28768
2018-03-06T09:36:38.746Z,33664
2018-03-06T09:37:40.364Z,29024
2018-03-06T09:38:41.991Z,31360
2018-03-06T09:39:43.616Z,32896
2018-03-06T09:40:45.236Z,30560
2018-03-06T09:41:46.865Z,29056
2018-03-06T09:42:48.490Z,30432
2018-03-06T09:43:50.110Z,30880
2018-03-06T09:44:51.732Z,31872
2018-03-06T09:45:53.362Z,33024
2018-03-06T09:46:54.990Z,29312
2018-03-06T09:47:56.614Z,29440
2018-03-06T09:48:58.239Z,28832
2018-03-06T09:49:59.866Z,28608
2018-03-06T09:51:01.494Z,22208
2018-03-06T09:52:03.117Z,24000
2018-03-06T09:53:04.740Z,22368
2018-03-06T09:54:06.370Z,19232
2018-03-06T09:55:07.997Z,27872
2018-03-06T09:56:09.625Z,30208
2018-03-06T09:57:11.251Z,33120
2018-03-06T09:58:12.878Z,30176
2018-03-06T09:59:14.502Z,28512
2018-03-06T10:00:16.130Z,27872
2018-03-06T10:01:17.758Z,20832
2018-03-06T10:02:19.391Z,32704
2018-03-06T10:03:21.011Z,37248
2018-03-06T10:04:22.641Z,36672
2018-03-06T10:05:24.264Z,37152
2018-03-06T10:06:25.894Z,31488
2018-03-06T10:07:27.518Z,29440
2018-03-06T10:08:29.150Z,29280
2018-03-06T10:09:30.775Z,25696
2018-03-06T10:10:32.407Z,24320
2018-03-06T10:11:34.034Z,23392
2018-03-06T10:12:35.657Z,31232
2018-03-06T10:13:37.287Z,31296
2018-03-06T10:14:38.913Z,30112
2018-03-06T10:15:40.544Z,30272
2018-03-06T10:16:42.178Z,30848
2018-03-06T10:17:43.803Z,30528
2018-03-06T10:18:45.426Z,31776
2018-03-06T10:19:47.056Z,33184
2018-03-06T10:20:48.678Z,33696
2018-03-06T10:21:50.312Z,35840
2018-03-06T10:22:51.937Z,37888
2018-03-06T10:23:53.599Z,29216
2018-03-06T10:24:55.197Z,26080
2018-03-06T10:25:56.825Z,24096
2018-03-06T10:26:58.450Z,29760
2018-03-06T10:28:00.083Z,34336
2018-03-06T10:29:01.708Z,34912
2018-03-06T10:30:03.340Z,29632
2018-03-06T10:31:04.970Z,33376
2018-03-06T10:32:06.599Z,35168
2018-03-06T10:33:08.229Z,35040
2018-03-06T10:34:09.852Z,33536
2018-03-06T10:35:11.487Z,33504
2018-03-06T10:36:13.109Z,31584
2018-03-06T10:37:14.821Z,32384
2018-03-06T10:38:16.454Z,36096
2018-03-06T10:39:18.082Z,35456
2018-03-06T10:40:19.709Z,34112
2018-03-06T10:41:21.342Z,31360
2018-03-06T10:42:22.971Z,31744
2018-03-06T10:43:24.602Z,34752
2018-03-06T10:44:26.234Z,34560
2018-03-06T10:45:27.862Z,33440
2018-03-06T10:46:29.492Z,35328
2018-03-06T10:47:31.126Z,33184
2018-03-06T10:48:32.755Z,30016
2018-03-06T10:49:34.437Z,31360
2018-03-06T10:50:36.053Z,36352
2018-03-06T10:51:37.682Z,35328
2018-03-06T10:52:39.315Z,37088
2018-03-06T10:53:40.953Z,38688
2018-03-06T10:54:42.572Z,38656
2018-03-06T10:55:44.206Z,38272
2018-03-06T10:56:45.837Z,36576
2018-03-06T10:57:48.029Z,37248
2018-03-06T10:58:49.657Z,35712
2018-03-06T10:59:51.289Z,38208
2018-03-06T11:00:52.919Z,37088
2018-03-06T11:01:54.550Z,34592
2018-03-06T11:02:56.183Z,34336
2018-03-06T11:03:57.808Z,34016
2018-03-06T11:04:59.437Z,31072
2018-03-06T11:06:01.073Z,33344
2018-03-06T11:07:02.709Z,33312
2018-03-06T11:08:04.335Z,32928
2018-03-06T11:09:05.962Z,34208
2018-03-06T11:10:07.595Z,34464
2018-03-06T11:11:09.230Z,32096
2018-03-06T11:12:10.855Z,30208
2018-03-06T11:13:13.307Z,32608
2018-03-06T11:14:14.945Z,31808
2018-03-06T11:15:16.572Z,33120
2018-03-06T11:16:18.204Z,33024
2018-03-06T11:17:19.832Z,34176
2018-03-06T11:18:21.470Z,34496
2018-03-06T11:19:23.094Z,34464
2018-03-06T11:20:24.726Z,34464
2018-03-06T11:21:26.356Z,32704
2018-03-06T11:22:27.988Z,32128
2018-03-06T11:23:29.613Z,30656
2018-03-06T11:24:31.246Z,31680
2018-03-06T11:25:32.875Z,31520
2018-03-06T11:26:34.503Z,29280
2018-03-06T11:27:36.132Z,29472
2018-03-06T11:28:37.768Z,28000
2018-03-06T11:29:39.394Z,25568
2018-03-06T11:30:41.021Z,22592
2018-03-06T11:31:42.649Z,28576
2018-03-06T11:32:44.292Z,30784
2018-03-06T11:33:45.868Z,30944
2018-03-06T11:34:47.496Z,31488
2018-03-06T11:35:49.132Z,31744
2018-03-06T11:36:50.756Z,29632
2018-03-06T11:37:52.388Z,27648
2018-03-06T11:38:54.014Z,28768
2018-03-06T11:39:55.645Z,28736
2018-03-06T11:40:57.271Z,26208
2018-03-06T11:41:58.901Z,27008
2018-03-06T11:43:00.529Z,26688
2018-03-06T11:44:02.161Z,26016
2018-03-06T11:45:03.785Z,25856
2018-03-06T11:46:05.412Z,27936
2018-03-06T11:47:07.042Z,28000
2018-03-06T11:48:08.671Z,25920
2018-03-06T11:49:10.301Z,26112
2018-03-06T11:50:11.930Z,24800
2018-03-06T11:51:13.559Z,23584
2018-03-06T11:52:15.186Z,24096
2018-03-06T11:53:16.815Z,22112
2018-03-06T11:54:18.439Z,22240
2018-03-06T11:55:20.068Z,21632
2018-03-06T11:56:21.698Z,22304
2018-03-06T11:57:23.324Z,23520
2018-03-06T11:58:24.956Z,25440
2018-03-06T11:59:26.580Z,25280
2018-03-06T12:00:28.204Z,24864
2018-03-06T12:01:29.832Z,23712
2018-03-06T12:02:31.461Z,22144
2018-03-06T12:03:33.084Z,24352
2018-03-06T12:04:34.712Z,24032
2018-03-06T12:05:36.337Z,23264
2018-03-06T12:06:37.966Z,23968
2018-03-06T12:07:39.586Z,25216
2018-03-06T12:08:41.211Z,24960
2018-03-06T12:09:42.840Z,24032
2018-03-06T12:10:44.465Z,19680
2018-03-06T12:11:46.091Z,21632
2018-03-06T12:12:47.714Z,22528
2018-03-06T12:13:49.341Z,20512
2018-03-06T12:14:50.962Z,19072
2018-03-06T12:15:52.589Z,17888
2018-03-06T12:16:54.219Z,17376
2018-03-06T12:17:55.843Z,17152
2018-03-06T12:18:57.476Z,18720
2018-03-06T12:19:59.103Z,16800
2018-03-06T12:21:00.725Z,15168
2018-03-06T12:22:02.354Z,14692
2018-03-06T12:23:03.973Z,14028
2018-03-06T12:24:05.600Z,14308
2018-03-06T12:25:07.225Z,14472
2018-03-06T12:26:08.848Z,14708
2018-03-06T12:27:10.480Z,14928
2018-03-06T12:28:12.101Z,14872
2018-03-06T12:29:13.727Z,14188
2018-03-06T12:30:15.351Z,13676
2018-03-06T12:31:16.977Z,13388
2018-03-06T12:32:18.608Z,12984
2018-03-06T12:33:20.223Z,12892
2018-03-06T12:34:21.851Z,13040
2018-03-06T12:35:23.471Z,12952
2018-03-06T12:36:25.095Z,12692
2018-03-06T12:37:26.717Z,12508
2018-03-06T12:38:28.345Z,12244
2018-03-06T12:39:29.963Z,12024
2018-03-06T12:40:31.584Z,11888
2018-03-06T12:41:33.213Z,11876
2018-03-06T12:42:34.838Z,11928
2018-03-06T12:43:36.447Z,11956
2018-03-06T12:44:38.072Z,11912
2018-03-06T12:45:39.696Z,11808
2018-03-06T12:46:41.316Z,11744
2018-03-06T12:47:42.942Z,11736
2018-03-06T12:48:44.573Z,11628
2018-03-06T12:49:46.185Z,11672
2018-03-06T12:50:47.810Z,11688
2018-03-06T12:51:49.429Z,11692
2018-03-06T12:52:51.055Z,11888
2018-03-06T12:53:52.676Z,11652
2018-03-06T12:54:54.367Z,11660
2018-03-06T12:55:55.927Z,11716
2018-03-06T12:56:57.545Z,11708
2018-03-06T12:57:59.173Z,11628
2018-03-06T12:59:00.789Z,11484
2018-03-06T13:00:02.415Z,11380
2018-03-06T13:01:04.035Z,11092
2018-03-06T13:02:05.663Z,11100
2018-03-06T13:03:07.284Z,10992
2018-03-06T13:04:08.909Z,10876
2018-03-06T13:05:10.529Z,11056
2018-03-06T13:06:12.156Z,11120
2018-03-06T13:07:13.798Z,11204
2018-03-06T13:08:15.395Z,11144
2018-03-06T13:09:17.016Z,10948
2018-03-06T13:10:18.644Z,11132
2018-03-06T13:11:20.259Z,11080
2018-03-06T13:12:21.886Z,10940
2018-03-06T13:13:23.505Z,10696
2018-03-06T13:14:25.650Z,10652
2018-03-06T13:15:27.275Z,10468
2018-03-06T13:16:28.902Z,10412
2018-03-06T13:17:30.521Z,10424
2018-03-06T13:18:32.139Z,10192
2018-03-06T13:19:33.762Z,9844
2018-03-06T13:20:35.379Z,9832
2018-03-06T13:21:37.006Z,9804
2018-03-06T13:22:38.632Z,9972
2018-03-06T13:23:40.626Z,9976
2018-03-06T13:24:42.248Z,10104
2018-03-06T13:25:43.869Z,10124
2018-03-06T13:26:45.494Z,10152
2018-03-06T13:27:47.112Z,10036
2018-03-06T13:28:48.738Z,9860
2018-03-06T13:29:50.356Z,9544
2018-03-06T13:30:51.973Z,9432
2018-03-06T13:31:53.597Z,9492
2018-03-06T13:32:55.219Z,9364
2018-03-06T13:33:56.834Z,9208
2018-03-06T13:34:58.452Z,9108
2018-03-06T13:36:00.076Z,9316
2018-03-06T13:37:01.697Z,9224
2018-03-06T13:38:03.315Z,9120
2018-03-06T13:39:04.938Z,8960
2018-03-06T13:40:06.559Z,8672
2018-03-06T13:41:08.183Z,8440
2018-03-06T13:42:10.742Z,8328
2018-03-06T13:43:11.369Z,8288
2018-03-06T13:44:12.991Z,8224
2018-03-06T13:45:14.610Z,8256
2018-03-06T13:46:16.239Z,8204
2018-03-06T13:47:17.854Z,8072
2018-03-06T13:48:19.480Z,8100
2018-03-06T13:49:21.095Z,8180
2018-03-06T13:50:22.716Z,8180
2018-03-06T13:51:24.334Z,8236
2018-03-06T13:52:25.963Z,8152
2018-03-06T13:53:27.577Z,7960
2018-03-06T13:54:29.199Z,7732
2018-03-06T13:55:30.810Z,7696
2018-03-06T13:56:32.434Z,7600
2018-03-06T13:57:34.050Z,7488
2018-03-06T13:58:35.676Z,7324
2018-03-06T13:59:37.288Z,7148
2018-03-06T14:00:38.912Z,7168
2018-03-06T14:01:40.528Z,7324
2018-03-06T14:02:42.150Z,7492
2018-03-06T14:03:43.766Z,7816
2018-03-06T14:04:45.387Z,7896
2018-03-06T14:05:47.007Z,7768
2018-03-06T14:06:48.635Z,7828
2018-03-06T14:07:50.250Z,7916